sensor_id;sensor_type;location;lat;lon;timestamp;P1;durP1;ratioP1;P2;durP2;ratioP2
18685;SDS011;9473;52.342;13.110;2023-02-22T00:00:39;9.13;;;2.55;;
18685;SDS011;9473;52.342;13.110;2023-02-22T00:03:08;19.75;;;2.58;;
18685;SDS011;9473;52.342;13.110;2023-02-22T00:05:36;17.15;;;2.55;;
18685;SDS011;9473;52.342;13.110;2023-02-22T00:08:04;15.63;;;2.20;;
18685;SDS011;9473;52.342;13.110;2023-02-22T00:10:33;16.25;;;2.75;;
18685;SDS011;9473;52.342;13.110;2023-02-22T00:13:02;14.57;;;2.42;;
18685;SDS011;9473;52.342;13.110;2023-02-22T00:15:31;12.75;;;2.13;;
18685;SDS011;9473;52.342;13.110;2023-02-22T00:17:58;17.70;;;2.60;;
18685;SDS011;9473;52.342;13.110;2023-02-22T00:20:26;14.00;;;2.30;;
18685;SDS011;9473;52.342;13.110;2023-02-22T00:22:53;12.20;;;2.47;;
18685;SDS011;9473;52.342;13.110;2023-02-22T00:25:21;14.40;;;2.17;;
18685;SDS011;9473;52.342;13.110;2023-02-22T00:27:48;13.50;;;2.40;;
18685;SDS011;9473;52.342;13.110;2023-02-22T00:30:17;17.02;;;2.58;;
18685;SDS011;9473;52.342;13.110;2023-02-22T00:32:46;16.10;;;2.72;;
18685;SDS011;9473;52.342;13.110;2023-02-22T00:35:13;17.70;;;2.80;;
18685;SDS011;9473;52.342;13.110;2023-02-22T00:37:40;19.55;;;2.58;;
18685;SDS011;9473;52.342;13.110;2023-02-22T00:40:07;15.20;;;2.35;;
18685;SDS011;9473;52.342;13.110;2023-02-22T00:42:35;15.20;;;2.42;;
18685;SDS011;9473;52.342;13.110;2023-02-22T00:45:02;10.02;;;2.25;;
18685;SDS011;9473;52.342;13.110;2023-02-22T00:47:29;12.50;;;2.33;;
18685;SDS011;9473;52.342;13.110;2023-02-22T00:49:57;17.40;;;2.05;;
18685;SDS011;9473;52.342;13.110;2023-02-22T00:52:25;10.13;;;2.40;;
18685;SDS011;9473;52.342;13.110;2023-02-22T00:54:52;18.88;;;2.30;;
18685;SDS011;9473;52.342;13.110;2023-02-22T00:57:19;16.02;;;2.10;;
18685;SDS011;9473;52.342;13.110;2023-02-22T00:59:46;15.07;;;2.65;;
18685;SDS011;9473;52.342;13.110;2023-02-22T01:02:13;21.83;;;2.20;;
18685;SDS011;9473;52.342;13.110;2023-02-22T01:04:40;16.42;;;2.40;;
18685;SDS011;9473;52.342;13.110;2023-02-22T01:07:08;12.43;;;2.60;;
18685;SDS011;9473;52.342;13.110;2023-02-22T01:09:35;16.98;;;2.58;;
18685;SDS011;9473;52.342;13.110;2023-02-22T01:12:03;9.90;;;2.08;;
18685;SDS011;9473;52.342;13.110;2023-02-22T01:14:31;17.88;;;2.70;;
18685;SDS011;9473;52.342;13.110;2023-02-22T01:16:58;15.48;;;2.30;;
18685;SDS011;9473;52.342;13.110;2023-02-22T01:19:25;16.52;;;2.67;;
18685;SDS011;9473;52.342;13.110;2023-02-22T01:21:52;14.80;;;2.03;;
18685;SDS011;9473;52.342;13.110;2023-02-22T01:24:20;15.88;;;2.60;;
18685;SDS011;9473;52.342;13.110;2023-02-22T01:26:48;7.00;;;1.50;;
18685;SDS011;9473;52.342;13.110;2023-02-22T01:29:16;13.68;;;2.20;;
18685;SDS011;9473;52.342;13.110;2023-02-22T01:31:49;15.00;;;2.20;;
18685;SDS011;9473;52.342;13.110;2023-02-22T01:34:16;14.82;;;2.35;;
18685;SDS011;9473;52.342;13.110;2023-02-22T01:36:43;11.80;;;2.38;;
18685;SDS011;9473;52.342;13.110;2023-02-22T01:39:10;13.90;;;2.38;;
18685;SDS011;9473;52.342;13.110;2023-02-22T01:41:39;18.30;;;2.40;;
18685;SDS011;9473;52.342;13.110;2023-02-22T01:44:19;14.80;;;2.65;;
18685;SDS011;9473;52.342;13.110;2023-02-22T01:46:46;19.80;;;2.88;;
18685;SDS011;9473;52.342;13.110;2023-02-22T01:49:13;16.42;;;2.60;;
18685;SDS011;9473;52.342;13.110;2023-02-22T01:51:42;12.38;;;2.08;;
18685;SDS011;9473;52.342;13.110;2023-02-22T01:54:11;9.40;;;1.63;;
18685;SDS011;9473;52.342;13.110;2023-02-22T01:56:41;9.88;;;1.75;;
18685;SDS011;9473;52.342;13.110;2023-02-22T01:59:11;14.80;;;2.38;;
18685;SDS011;9473;52.342;13.110;2023-02-22T02:01:38;14.82;;;2.40;;
18685;SDS011;9473;52.342;13.110;2023-02-22T02:04:08;9.52;;;2.15;;
18685;SDS011;9473;52.342;13.110;2023-02-22T02:06:36;12.57;;;2.17;;
18685;SDS011;9473;52.342;13.110;2023-02-22T02:09:03;12.32;;;2.17;;
18685;SDS011;9473;52.342;13.110;2023-02-22T02:11:31;8.27;;;1.60;;
18685;SDS011;9473;52.342;13.110;2023-02-22T02:13:59;14.85;;;2.17;;
18685;SDS011;9473;52.342;13.110;2023-02-22T02:16:30;8.93;;;1.77;;
18685;SDS011;9473;52.342;13.110;2023-02-22T02:18:59;5.05;;;1.70;;
18685;SDS011;9473;52.342;13.110;2023-02-22T02:24:21;13.10;;;2.05;;
18685;SDS011;9473;52.342;13.110;2023-02-22T02:27:01;13.15;;;2.20;;
18685;SDS011;9473;52.342;13.110;2023-02-22T02:32:21;9.82;;;2.00;;
18685;SDS011;9473;52.342;13.110;2023-02-22T02:34:54;19.38;;;2.30;;
18685;SDS011;9473;52.342;13.110;2023-02-22T02:37:27;14.98;;;2.20;;
18685;SDS011;9473;52.342;13.110;2023-02-22T02:39:59;15.00;;;2.40;;
18685;SDS011;9473;52.342;13.110;2023-02-22T02:42:29;18.60;;;2.35;;
18685;SDS011;9473;52.342;13.110;2023-02-22T02:45:00;11.68;;;1.85;;
18685;SDS011;9473;52.342;13.110;2023-02-22T02:47:29;10.52;;;2.10;;
18685;SDS011;9473;52.342;13.110;2023-02-22T02:49:59;6.38;;;1.92;;
18685;SDS011;9473;52.342;13.110;2023-02-22T02:52:28;6.95;;;2.00;;
18685;SDS011;9473;52.342;13.110;2023-02-22T02:54:56;14.85;;;2.17;;
18685;SDS011;9473;52.342;13.110;2023-02-22T02:57:24;12.80;;;2.03;;
18685;SDS011;9473;52.342;13.110;2023-02-22T02:59:51;9.50;;;2.00;;
18685;SDS011;9473;52.342;13.110;2023-02-22T03:02:22;7.22;;;2.00;;
18685;SDS011;9473;52.342;13.110;2023-02-22T03:05:02;13.10;;;2.38;;
18685;SDS011;9473;52.342;13.110;2023-02-22T03:07:35;12.02;;;2.25;;
18685;SDS011;9473;52.342;13.110;2023-02-22T03:10:14;13.55;;;2.28;;
18685;SDS011;9473;52.342;13.110;2023-02-22T03:12:44;10.20;;;2.00;;
18685;SDS011;9473;52.342;13.110;2023-02-22T03:15:18;15.13;;;2.78;;
18685;SDS011;9473;52.342;13.110;2023-02-22T03:17:50;17.13;;;2.47;;
18685;SDS011;9473;52.342;13.110;2023-02-22T03:20:21;20.08;;;2.50;;
18685;SDS011;9473;52.342;13.110;2023-02-22T03:22:52;10.98;;;1.80;;
18685;SDS011;9473;52.342;13.110;2023-02-22T03:25:21;11.68;;;1.77;;
18685;SDS011;9473;52.342;13.110;2023-02-22T03:27:50;12.80;;;2.63;;
18685;SDS011;9473;52.342;13.110;2023-02-22T03:30:19;16.25;;;2.58;;
18685;SDS011;9473;52.342;13.110;2023-02-22T03:32:48;10.32;;;2.60;;
18685;SDS011;9473;52.342;13.110;2023-02-22T03:35:17;10.30;;;2.53;;
18685;SDS011;9473;52.342;13.110;2023-02-22T03:37:47;9.60;;;2.17;;
18685;SDS011;9473;52.342;13.110;2023-02-22T03:40:17;12.80;;;2.33;;
18685;SDS011;9473;52.342;13.110;2023-02-22T03:42:51;14.82;;;2.58;;
18685;SDS011;9473;52.342;13.110;2023-02-22T03:45:20;13.23;;;2.20;;
18685;SDS011;9473;52.342;13.110;2023-02-22T03:47:50;13.98;;;2.40;;
18685;SDS011;9473;52.342;13.110;2023-02-22T03:50:18;18.77;;;2.35;;
18685;SDS011;9473;52.342;13.110;2023-02-22T03:52:47;8.18;;;2.00;;
18685;SDS011;9473;52.342;13.110;2023-02-22T03:55:14;12.43;;;1.88;;
18685;SDS011;9473;52.342;13.110;2023-02-22T03:57:43;13.85;;;2.83;;
18685;SDS011;9473;52.342;13.110;2023-02-22T04:00:12;6.47;;;2.15;;
18685;SDS011;9473;52.342;13.110;2023-02-22T04:02:42;9.10;;;1.70;;
18685;SDS011;9473;52.342;13.110;2023-02-22T04:05:09;19.52;;;2.60;;
18685;SDS011;9473;52.342;13.110;2023-02-22T04:07:38;9.93;;;2.25;;
18685;SDS011;9473;52.342;13.110;2023-02-22T04:10:06;11.05;;;2.60;;
18685;SDS011;9473;52.342;13.110;2023-02-22T04:12:33;9.80;;;2.58;;
18685;SDS011;9473;52.342;13.110;2023-02-22T04:15:00;8.98;;;2.00;;
18685;SDS011;9473;52.342;13.110;2023-02-22T04:17:27;8.45;;;2.70;;
18685;SDS011;9473;52.342;13.110;2023-02-22T04:19:54;11.93;;;2.33;;
18685;SDS011;9473;52.342;13.110;2023-02-22T04:22:21;11.40;;;2.80;;
18685;SDS011;9473;52.342;13.110;2023-02-22T04:24:48;8.15;;;2.67;;
18685;SDS011;9473;52.342;13.110;2023-02-22T04:27:16;9.35;;;2.22;;
18685;SDS011;9473;52.342;13.110;2023-02-22T04:29:43;12.60;;;2.53;;
18685;SDS011;9473;52.342;13.110;2023-02-22T04:32:10;15.98;;;3.00;;
18685;SDS011;9473;52.342;13.110;2023-02-22T04:34:37;7.40;;;1.92;;
18685;SDS011;9473;52.342;13.110;2023-02-22T04:37:04;7.20;;;2.25;;
18685;SDS011;9473;52.342;13.110;2023-02-22T04:39:31;12.50;;;2.20;;
18685;SDS011;9473;52.342;13.110;2023-02-22T04:41:58;7.80;;;1.98;;
18685;SDS011;9473;52.342;13.110;2023-02-22T04:44:26;4.07;;;1.55;;
18685;SDS011;9473;52.342;13.110;2023-02-22T04:46:53;12.15;;;2.80;;
18685;SDS011;9473;52.342;13.110;2023-02-22T04:49:21;9.07;;;2.45;;
18685;SDS011;9473;52.342;13.110;2023-02-22T04:51:48;15.15;;;2.70;;
18685;SDS011;9473;52.342;13.110;2023-02-22T04:54:15;11.02;;;2.25;;
18685;SDS011;9473;52.342;13.110;2023-02-22T04:56:42;14.50;;;2.80;;
18685;SDS011;9473;52.342;13.110;2023-02-22T04:59:09;8.25;;;2.03;;
18685;SDS011;9473;52.342;13.110;2023-02-22T05:01:37;11.18;;;3.08;;
18685;SDS011;9473;52.342;13.110;2023-02-22T05:04:05;9.05;;;2.38;;
18685;SDS011;9473;52.342;13.110;2023-02-22T05:06:32;8.75;;;2.55;;
18685;SDS011;9473;52.342;13.110;2023-02-22T05:08:59;9.40;;;2.10;;
18685;SDS011;9473;52.342;13.110;2023-02-22T05:11:26;13.63;;;2.70;;
18685;SDS011;9473;52.342;13.110;2023-02-22T05:13:53;7.60;;;2.40;;
18685;SDS011;9473;52.342;13.110;2023-02-22T05:16:20;9.43;;;2.20;;
18685;SDS011;9473;52.342;13.110;2023-02-22T05:18:48;14.30;;;2.67;;
18685;SDS011;9473;52.342;13.110;2023-02-22T05:21:15;11.90;;;2.70;;
18685;SDS011;9473;52.342;13.110;2023-02-22T05:23:42;11.50;;;2.58;;
18685;SDS011;9473;52.342;13.110;2023-02-22T05:26:09;13.68;;;2.42;;
18685;SDS011;9473;52.342;13.110;2023-02-22T05:28:36;14.20;;;2.60;;
18685;SDS011;9473;52.342;13.110;2023-02-22T05:31:03;11.20;;;2.72;;
18685;SDS011;9473;52.342;13.110;2023-02-22T05:33:31;10.10;;;2.08;;
18685;SDS011;9473;52.342;13.110;2023-02-22T05:35:59;11.85;;;2.38;;
18685;SDS011;9473;52.342;13.110;2023-02-22T05:38:26;9.52;;;2.55;;
18685;SDS011;9473;52.342;13.110;2023-02-22T05:40:53;9.10;;;2.33;;
18685;SDS011;9473;52.342;13.110;2023-02-22T05:43:20;17.75;;;3.00;;
18685;SDS011;9473;52.342;13.110;2023-02-22T05:45:47;8.20;;;2.08;;
18685;SDS011;9473;52.342;13.110;2023-02-22T05:48:14;18.08;;;2.95;;
18685;SDS011;9473;52.342;13.110;2023-02-22T05:50:41;19.17;;;2.28;;
18685;SDS011;9473;52.342;13.110;2023-02-22T05:53:10;11.75;;;2.60;;
18685;SDS011;9473;52.342;13.110;2023-02-22T05:55:37;11.27;;;2.65;;
18685;SDS011;9473;52.342;13.110;2023-02-22T05:58:04;10.00;;;2.28;;
18685;SDS011;9473;52.342;13.110;2023-02-22T06:00:31;7.72;;;2.47;;
18685;SDS011;9473;52.342;13.110;2023-02-22T06:02:59;10.75;;;2.35;;
18685;SDS011;9473;52.342;13.110;2023-02-22T06:05:26;13.35;;;2.42;;
18685;SDS011;9473;52.342;13.110;2023-02-22T06:07:53;15.57;;;2.47;;
18685;SDS011;9473;52.342;13.110;2023-02-22T06:10:22;10.40;;;2.25;;
18685;SDS011;9473;52.342;13.110;2023-02-22T06:12:49;15.75;;;2.97;;
18685;SDS011;9473;52.342;13.110;2023-02-22T06:15:17;10.95;;;2.30;;
18685;SDS011;9473;52.342;13.110;2023-02-22T06:17:44;13.98;;;3.15;;
18685;SDS011;9473;52.342;13.110;2023-02-22T06:20:11;14.75;;;2.70;;
18685;SDS011;9473;52.342;13.110;2023-02-22T06:22:39;11.27;;;2.53;;
18685;SDS011;9473;52.342;13.110;2023-02-22T06:25:06;12.15;;;3.03;;
18685;SDS011;9473;52.342;13.110;2023-02-22T06:27:35;14.00;;;2.97;;
18685;SDS011;9473;52.342;13.110;2023-02-22T06:30:02;15.23;;;2.55;;
18685;SDS011;9473;52.342;13.110;2023-02-22T06:32:30;12.13;;;2.70;;
18685;SDS011;9473;52.342;13.110;2023-02-22T06:34:57;10.95;;;3.00;;
18685;SDS011;9473;52.342;13.110;2023-02-22T06:37:23;12.60;;;2.83;;
18685;SDS011;9473;52.342;13.110;2023-02-22T06:39:50;13.57;;;2.45;;
18685;SDS011;9473;52.342;13.110;2023-02-22T06:42:17;16.88;;;2.60;;
18685;SDS011;9473;52.342;13.110;2023-02-22T06:44:46;16.55;;;2.40;;
18685;SDS011;9473;52.342;13.110;2023-02-22T06:47:12;14.45;;;3.03;;
18685;SDS011;9473;52.342;13.110;2023-02-22T06:49:39;16.23;;;3.17;;
18685;SDS011;9473;52.342;13.110;2023-02-22T06:52:07;13.93;;;2.70;;
18685;SDS011;9473;52.342;13.110;2023-02-22T06:54:34;20.50;;;2.53;;
18685;SDS011;9473;52.342;13.110;2023-02-22T06:57:01;17.42;;;2.72;;
18685;SDS011;9473;52.342;13.110;2023-02-22T06:59:28;13.13;;;2.92;;
18685;SDS011;9473;52.342;13.110;2023-02-22T07:01:56;8.52;;;2.40;;
18685;SDS011;9473;52.342;13.110;2023-02-22T07:04:24;12.82;;;2.70;;
18685;SDS011;9473;52.342;13.110;2023-02-22T07:06:50;11.05;;;2.35;;
18685;SDS011;9473;52.342;13.110;2023-02-22T07:09:17;12.45;;;2.88;;
18685;SDS011;9473;52.342;13.110;2023-02-22T07:11:44;14.38;;;2.85;;
18685;SDS011;9473;52.342;13.110;2023-02-22T07:14:11;8.43;;;2.35;;
18685;SDS011;9473;52.342;13.110;2023-02-22T07:16:38;12.65;;;3.30;;
18685;SDS011;9473;52.342;13.110;2023-02-22T07:19:06;13.52;;;3.00;;
18685;SDS011;9473;52.342;13.110;2023-02-22T07:21:33;16.25;;;2.80;;
18685;SDS011;9473;52.342;13.110;2023-02-22T07:24:00;11.13;;;2.40;;
18685;SDS011;9473;52.342;13.110;2023-02-22T07:26:27;9.18;;;2.30;;
18685;SDS011;9473;52.342;13.110;2023-02-22T07:28:54;6.18;;;2.10;;
18685;SDS011;9473;52.342;13.110;2023-02-22T07:31:21;10.85;;;2.75;;
18685;SDS011;9473;52.342;13.110;2023-02-22T07:33:48;19.30;;;2.95;;
18685;SDS011;9473;52.342;13.110;2023-02-22T07:36:16;13.80;;;3.05;;
18685;SDS011;9473;52.342;13.110;2023-02-22T07:38:43;10.57;;;2.72;;
18685;SDS011;9473;52.342;13.110;2023-02-22T07:41:10;15.18;;;2.95;;
18685;SDS011;9473;52.342;13.110;2023-02-22T07:43:37;16.45;;;3.28;;
18685;SDS011;9473;52.342;13.110;2023-02-22T07:46:04;11.43;;;2.95;;
18685;SDS011;9473;52.342;13.110;2023-02-22T07:48:31;14.88;;;3.25;;
18685;SDS011;9473;52.342;13.110;2023-02-22T07:50:58;12.75;;;4.00;;
18685;SDS011;9473;52.342;13.110;2023-02-22T07:53:27;15.00;;;3.10;;
18685;SDS011;9473;52.342;13.110;2023-02-22T07:55:54;13.35;;;3.55;;
18685;SDS011;9473;52.342;13.110;2023-02-22T07:58:22;18.83;;;3.75;;
18685;SDS011;9473;52.342;13.110;2023-02-22T08:00:50;15.48;;;3.50;;
18685;SDS011;9473;52.342;13.110;2023-02-22T08:03:18;19.55;;;3.78;;
18685;SDS011;9473;52.342;13.110;2023-02-22T08:05:46;21.38;;;3.60;;
18685;SDS011;9473;52.342;13.110;2023-02-22T08:08:16;16.42;;;3.40;;
18685;SDS011;9473;52.342;13.110;2023-02-22T08:13:13;11.55;;;3.08;;
18685;SDS011;9473;52.342;13.110;2023-02-22T08:15:41;10.40;;;2.75;;
18685;SDS011;9473;52.342;13.110;2023-02-22T08:18:09;10.40;;;3.00;;
18685;SDS011;9473;52.342;13.110;2023-02-22T08:20:37;18.52;;;3.38;;
18685;SDS011;9473;52.342;13.110;2023-02-22T08:23:05;13.32;;;2.55;;
18685;SDS011;9473;52.342;13.110;2023-02-22T08:25:32;18.15;;;3.60;;
18685;SDS011;9473;52.342;13.110;2023-02-22T08:28:00;17.52;;;3.58;;
18685;SDS011;9473;52.342;13.110;2023-02-22T08:30:30;24.23;;;3.90;;
18685;SDS011;9473;52.342;13.110;2023-02-22T08:32:58;14.57;;;3.38;;
18685;SDS011;9473;52.342;13.110;2023-02-22T08:35:26;15.45;;;3.47;;
18685;SDS011;9473;52.342;13.110;2023-02-22T08:37:54;12.82;;;3.25;;
18685;SDS011;9473;52.342;13.110;2023-02-22T08:40:23;19.67;;;3.33;;
18685;SDS011;9473;52.342;13.110;2023-02-22T08:42:51;22.55;;;4.07;;
18685;SDS011;9473;52.342;13.110;2023-02-22T08:45:18;14.57;;;3.38;;
18685;SDS011;9473;52.342;13.110;2023-02-22T08:47:47;16.25;;;3.25;;
18685;SDS011;9473;52.342;13.110;2023-02-22T08:50:15;16.23;;;3.13;;
18685;SDS011;9473;52.342;13.110;2023-02-22T08:52:42;13.32;;;2.97;;
18685;SDS011;9473;52.342;13.110;2023-02-22T08:55:09;16.15;;;3.10;;
18685;SDS011;9473;52.342;13.110;2023-02-22T08:57:36;12.00;;;3.35;;
18685;SDS011;9473;52.342;13.110;2023-02-22T09:00:03;13.10;;;3.25;;
18685;SDS011;9473;52.342;13.110;2023-02-22T09:02:30;15.02;;;3.25;;
18685;SDS011;9473;52.342;13.110;2023-02-22T09:04:58;13.88;;;3.08;;
18685;SDS011;9473;52.342;13.110;2023-02-22T09:07:25;12.95;;;2.80;;
18685;SDS011;9473;52.342;13.110;2023-02-22T09:09:52;14.40;;;3.00;;
18685;SDS011;9473;52.342;13.110;2023-02-22T09:12:19;18.77;;;3.17;;
18685;SDS011;9473;52.342;13.110;2023-02-22T09:14:46;17.33;;;2.97;;
18685;SDS011;9473;52.342;13.110;2023-02-22T09:17:13;15.38;;;3.08;;
18685;SDS011;9473;52.342;13.110;2023-02-22T09:19:40;22.15;;;3.35;;
18685;SDS011;9473;52.342;13.110;2023-02-22T09:22:08;15.50;;;3.20;;
18685;SDS011;9473;52.342;13.110;2023-02-22T09:24:35;16.35;;;3.42;;
18685;SDS011;9473;52.342;13.110;2023-02-22T09:27:02;13.73;;;2.92;;
18685;SDS011;9473;52.342;13.110;2023-02-22T09:29:31;18.33;;;2.80;;
18685;SDS011;9473;52.342;13.110;2023-02-22T09:31:58;13.52;;;3.75;;
18685;SDS011;9473;52.342;13.110;2023-02-22T09:34:25;10.18;;;2.92;;
18685;SDS011;9473;52.342;13.110;2023-02-22T09:36:54;18.52;;;3.45;;
18685;SDS011;9473;52.342;13.110;2023-02-22T09:39:22;12.65;;;2.67;;
18685;SDS011;9473;52.342;13.110;2023-02-22T09:41:50;13.73;;;2.70;;
18685;SDS011;9473;52.342;13.110;2023-02-22T09:44:21;23.80;;;3.30;;
18685;SDS011;9473;52.342;13.110;2023-02-22T09:46:51;14.88;;;2.85;;
18685;SDS011;9473;52.342;13.110;2023-02-22T09:49:20;13.88;;;2.97;;
18685;SDS011;9473;52.342;13.110;2023-02-22T09:51:49;12.65;;;3.05;;
18685;SDS011;9473;52.342;13.110;2023-02-22T09:54:20;18.17;;;2.95;;
18685;SDS011;9473;52.342;13.110;2023-02-22T09:56:50;22.17;;;3.53;;
18685;SDS011;9473;52.342;13.110;2023-02-22T09:59:21;13.98;;;2.95;;
18685;SDS011;9473;52.342;13.110;2023-02-22T10:01:49;13.35;;;2.75;;
18685;SDS011;9473;52.342;13.110;2023-02-22T10:04:21;14.75;;;2.95;;
18685;SDS011;9473;52.342;13.110;2023-02-22T10:06:55;13.52;;;2.55;;
18685;SDS011;9473;52.342;13.110;2023-02-22T10:09:29;13.38;;;2.63;;
18685;SDS011;9473;52.342;13.110;2023-02-22T10:11:59;12.27;;;2.92;;
18685;SDS011;9473;52.342;13.110;2023-02-22T10:14:39;17.33;;;3.40;;
18685;SDS011;9473;52.342;13.110;2023-02-22T10:17:10;13.48;;;2.92;;
18685;SDS011;9473;52.342;13.110;2023-02-22T10:19:39;12.52;;;2.05;;
18685;SDS011;9473;52.342;13.110;2023-02-22T10:22:12;13.35;;;2.42;;
18685;SDS011;9473;52.342;13.110;2023-02-22T10:24:45;16.08;;;2.60;;
18685;SDS011;9473;52.342;13.110;2023-02-22T10:27:18;18.00;;;3.08;;
18685;SDS011;9473;52.342;13.110;2023-02-22T10:29:47;14.02;;;3.03;;
18685;SDS011;9473;52.342;13.110;2023-02-22T10:32:16;15.60;;;2.80;;
18685;SDS011;9473;52.342;13.110;2023-02-22T10:34:45;14.45;;;2.88;;
18685;SDS011;9473;52.342;13.110;2023-02-22T10:37:19;13.55;;;2.85;;
18685;SDS011;9473;52.342;13.110;2023-02-22T10:39:48;20.30;;;2.80;;
18685;SDS011;9473;52.342;13.110;2023-02-22T10:42:18;9.48;;;2.35;;
18685;SDS011;9473;52.342;13.110;2023-02-22T10:44:47;12.70;;;2.58;;
18685;SDS011;9473;52.342;13.110;2023-02-22T10:47:14;13.70;;;2.53;;
18685;SDS011;9473;52.342;13.110;2023-02-22T10:49:42;10.70;;;2.63;;
18685;SDS011;9473;52.342;13.110;2023-02-22T10:52:13;12.98;;;2.05;;
18685;SDS011;9473;52.342;13.110;2023-02-22T10:54:40;11.52;;;2.65;;
18685;SDS011;9473;52.342;13.110;2023-02-22T10:57:08;10.95;;;2.38;;
18685;SDS011;9473;52.342;13.110;2023-02-22T10:59:39;7.78;;;2.28;;
18685;SDS011;9473;52.342;13.110;2023-02-22T11:02:08;7.10;;;1.92;;
18685;SDS011;9473;52.342;13.110;2023-02-22T11:04:46;11.70;;;2.00;;
18685;SDS011;9473;52.342;13.110;2023-02-22T11:07:21;11.15;;;2.28;;
18685;SDS011;9473;52.342;13.110;2023-02-22T11:09:49;11.43;;;2.05;;
18685;SDS011;9473;52.342;13.110;2023-02-22T11:12:18;10.10;;;2.10;;
18685;SDS011;9473;52.342;13.110;2023-02-22T11:14:46;9.63;;;1.95;;
18685;SDS011;9473;52.342;13.110;2023-02-22T11:17:17;6.05;;;1.60;;
18685;SDS011;9473;52.342;13.110;2023-02-22T11:19:45;9.93;;;2.15;;
18685;SDS011;9473;52.342;13.110;2023-02-22T11:22:17;16.15;;;2.67;;
18685;SDS011;9473;52.342;13.110;2023-02-22T11:24:46;7.47;;;2.10;;
18685;SDS011;9473;52.342;13.110;2023-02-22T11:27:20;12.38;;;3.67;;
18685;SDS011;9473;52.342;13.110;2023-02-22T11:29:50;13.15;;;2.63;;
18685;SDS011;9473;52.342;13.110;2023-02-22T11:32:18;15.98;;;2.97;;
18685;SDS011;9473;52.342;13.110;2023-02-22T11:34:47;17.65;;;3.22;;
18685;SDS011;9473;52.342;13.110;2023-02-22T11:37:18;14.07;;;2.75;;
18685;SDS011;9473;52.342;13.110;2023-02-22T11:39:46;13.35;;;2.78;;
18685;SDS011;9473;52.342;13.110;2023-02-22T11:42:22;13.07;;;2.42;;
18685;SDS011;9473;52.342;13.110;2023-02-22T11:44:54;10.18;;;2.20;;
18685;SDS011;9473;52.342;13.110;2023-02-22T11:47:33;14.85;;;2.60;;
18685;SDS011;9473;52.342;13.110;2023-02-22T11:50:00;9.25;;;3.05;;
18685;SDS011;9473;52.342;13.110;2023-02-22T11:52:28;14.18;;;2.55;;
18685;SDS011;9473;52.342;13.110;2023-02-22T11:55:12;14.20;;;2.95;;
18685;SDS011;9473;52.342;13.110;2023-02-22T11:57:48;13.40;;;2.70;;
18685;SDS011;9473;52.342;13.110;2023-02-22T12:00:22;15.23;;;3.20;;
18685;SDS011;9473;52.342;13.110;2023-02-22T12:02:58;13.85;;;3.25;;
18685;SDS011;9473;52.342;13.110;2023-02-22T12:05:38;10.30;;;3.35;;
18685;SDS011;9473;52.342;13.110;2023-02-22T12:08:12;14.48;;;2.95;;
18685;SDS011;9473;52.342;13.110;2023-02-22T12:10:45;16.27;;;3.65;;
18685;SDS011;9473;52.342;13.110;2023-02-22T12:13:22;16.85;;;3.60;;
18685;SDS011;9473;52.342;13.110;2023-02-22T12:15:54;15.75;;;4.28;;
18685;SDS011;9473;52.342;13.110;2023-02-22T12:18:25;22.20;;;4.40;;
18685;SDS011;9473;52.342;13.110;2023-02-22T12:20:56;21.15;;;4.38;;
18685;SDS011;9473;52.342;13.110;2023-02-22T12:23:27;13.93;;;4.38;;
18685;SDS011;9473;52.342;13.110;2023-02-22T12:25:57;13.43;;;4.10;;
18685;SDS011;9473;52.342;13.110;2023-02-22T12:28:27;16.33;;;4.10;;
18685;SDS011;9473;52.342;13.110;2023-02-22T12:31:02;15.30;;;3.50;;
18685;SDS011;9473;52.342;13.110;2023-02-22T12:33:41;14.93;;;3.70;;
18685;SDS011;9473;52.342;13.110;2023-02-22T12:36:09;20.38;;;3.45;;
18685;SDS011;9473;52.342;13.110;2023-02-22T12:38:38;16.27;;;3.50;;
18685;SDS011;9473;52.342;13.110;2023-02-22T12:41:08;17.60;;;3.67;;
18685;SDS011;9473;52.342;13.110;2023-02-22T12:43:38;11.00;;;3.50;;
18685;SDS011;9473;52.342;13.110;2023-02-22T12:46:09;16.90;;;3.38;;
18685;SDS011;9473;52.342;13.110;2023-02-22T12:48:39;14.63;;;3.83;;
18685;SDS011;9473;52.342;13.110;2023-02-22T12:51:13;19.00;;;3.83;;
18685;SDS011;9473;52.342;13.110;2023-02-22T12:53:42;16.00;;;3.50;;
18685;SDS011;9473;52.342;13.110;2023-02-22T12:56:14;13.68;;;3.25;;
18685;SDS011;9473;52.342;13.110;2023-02-22T12:58:45;9.38;;;2.65;;
18685;SDS011;9473;52.342;13.110;2023-02-22T13:01:16;12.77;;;2.70;;
18685;SDS011;9473;52.342;13.110;2023-02-22T13:03:45;9.30;;;2.60;;
18685;SDS011;9473;52.342;13.110;2023-02-22T13:06:16;10.13;;;2.90;;
18685;SDS011;9473;52.342;13.110;2023-02-22T13:08:51;10.95;;;2.90;;
18685;SDS011;9473;52.342;13.110;2023-02-22T13:11:21;8.85;;;2.50;;
18685;SDS011;9473;52.342;13.110;2023-02-22T13:13:55;12.43;;;2.92;;
18685;SDS011;9473;52.342;13.110;2023-02-22T13:16:31;13.07;;;2.55;;
18685;SDS011;9473;52.342;13.110;2023-02-22T13:19:00;7.70;;;2.08;;
18685;SDS011;9473;52.342;13.110;2023-02-22T13:21:42;13.43;;;3.05;;
18685;SDS011;9473;52.342;13.110;2023-02-22T13:24:13;11.50;;;2.25;;
18685;SDS011;9473;52.342;13.110;2023-02-22T13:26:43;13.30;;;2.17;;
18685;SDS011;9473;52.342;13.110;2023-02-22T13:29:15;9.05;;;1.75;;
18685;SDS011;9473;52.342;13.110;2023-02-22T13:31:48;9.73;;;2.20;;
18685;SDS011;9473;52.342;13.110;2023-02-22T13:34:36;10.32;;;2.03;;
18685;SDS011;9473;52.342;13.110;2023-02-22T13:37:09;14.32;;;2.10;;
18685;SDS011;9473;52.342;13.110;2023-02-22T13:39:45;10.35;;;1.90;;
18685;SDS011;9473;52.342;13.110;2023-02-22T13:47:58;7.72;;;1.83;;
18685;SDS011;9473;52.342;13.110;2023-02-22T13:50:36;14.95;;;2.55;;
18685;SDS011;9473;52.342;13.110;2023-02-22T13:53:09;9.30;;;1.70;;
18685;SDS011;9473;52.342;13.110;2023-02-22T13:55:37;9.32;;;1.63;;
18685;SDS011;9473;52.342;13.110;2023-02-22T13:58:07;7.70;;;1.80;;
18685;SDS011;9473;52.342;13.110;2023-02-22T14:00:38;9.77;;;1.77;;
18685;SDS011;9473;52.342;13.110;2023-02-22T14:03:27;8.98;;;1.88;;
18685;SDS011;9473;52.342;13.110;2023-02-22T14:05:59;8.85;;;1.73;;
18685;SDS011;9473;52.342;13.110;2023-02-22T14:08:39;11.55;;;1.98;;
18685;SDS011;9473;52.342;13.110;2023-02-22T14:14:08;11.65;;;2.28;;
18685;SDS011;9473;52.342;13.110;2023-02-22T14:16:35;9.07;;;1.70;;
18685;SDS011;9473;52.342;13.110;2023-02-22T14:19:04;18.17;;;1.98;;
18685;SDS011;9473;52.342;13.110;2023-02-22T14:21:31;8.70;;;2.00;;
18685;SDS011;9473;52.342;13.110;2023-02-22T14:24:05;8.02;;;1.73;;
18685;SDS011;9473;52.342;13.110;2023-02-22T14:26:32;15.10;;;2.20;;
18685;SDS011;9473;52.342;13.110;2023-02-22T14:29:00;11.65;;;2.00;;
18685;SDS011;9473;52.342;13.110;2023-02-22T14:31:28;11.85;;;2.40;;
18685;SDS011;9473;52.342;13.110;2023-02-22T14:34:00;7.20;;;1.55;;
18685;SDS011;9473;52.342;13.110;2023-02-22T14:36:32;14.35;;;4.32;;
18685;SDS011;9473;52.342;13.110;2023-02-22T14:39:04;11.20;;;2.05;;
18685;SDS011;9473;52.342;13.110;2023-02-22T14:41:32;15.93;;;2.22;;
18685;SDS011;9473;52.342;13.110;2023-02-22T14:44:01;9.05;;;1.88;;
18685;SDS011;9473;52.342;13.110;2023-02-22T14:46:29;14.43;;;2.28;;
18685;SDS011;9473;52.342;13.110;2023-02-22T14:48:58;13.05;;;2.00;;
18685;SDS011;9473;52.342;13.110;2023-02-22T14:51:26;8.07;;;1.90;;
18685;SDS011;9473;52.342;13.110;2023-02-22T14:53:58;15.07;;;2.17;;
18685;SDS011;9473;52.342;13.110;2023-02-22T14:56:28;7.70;;;2.05;;
18685;SDS011;9473;52.342;13.110;2023-02-22T14:59:02;9.35;;;1.90;;
18685;SDS011;9473;52.342;13.110;2023-02-22T15:01:35;15.23;;;1.92;;
18685;SDS011;9473;52.342;13.110;2023-02-22T15:04:15;12.35;;;1.65;;
18685;SDS011;9473;52.342;13.110;2023-02-22T15:06:42;11.18;;;1.77;;